sensor_id;sensor_type;location;lat;lon;timestamp;temperature;humidity
21035;DHT22;10676;50.848;3.272;2023-04-03T00:02:07;1.20;99.90
21035;DHT22;10676;50.848;3.272;2023-04-03T00:04:33;1.20;99.90
21035;DHT22;10676;50.848;3.272;2023-04-03T00:06:59;1.10;99.90
21035;DHT22;10676;50.848;3.272;2023-04-03T00:09:24;1.10;99.90
21035;DHT22;10676;50.848;3.272;2023-04-03T00:11:50;1.10;99.90
21035;DHT22;10676;50.848;3.272;2023-04-03T00:14:16;1.00;99.90
21035;DHT22;10676;50.848;3.272;2023-04-03T00:16:41;1.00;99.90
21035;DHT22;10676;50.848;3.272;2023-04-03T00:19:07;1.10;99.90
21035;DHT22;10676;50.848;3.272;2023-04-03T00:21:33;1.00;99.90
21035;DHT22;10676;50.848;3.272;2023-04-03T00:23:59;1.00;99.90
21035;DHT22;10676;50.848;3.272;2023-04-03T00:26:25;1.00;99.90
21035;DHT22;10676;50.848;3.272;2023-04-03T00:28:51;1.10;99.90
21035;DHT22;10676;50.848;3.272;2023-04-03T00:31:17;1.10;99.90
21035;DHT22;10676;50.848;3.272;2023-04-03T00:33:43;1.10;99.90
21035;DHT22;10676;50.848;3.272;2023-04-03T00:36:10;1.20;99.90
21035;DHT22;10676;50.848;3.272;2023-04-03T00:38:36;1.30;99.90
21035;DHT22;10676;50.848;3.272;2023-04-03T00:41:02;1.30;99.90
21035;DHT22;10676;50.848;3.272;2023-04-03T00:43:28;1.30;99.90
21035;DHT22;10676;50.848;3.272;2023-04-03T00:45:55;1.40;99.90
21035;DHT22;10676;50.848;3.272;2023-04-03T00:50:53;1.40;99.90
21035;DHT22;10676;50.848;3.272;2023-04-03T00:53:23;1.40;99.90
21035;DHT22;10676;50.848;3.272;2023-04-03T00:55:51;1.40;99.90
21035;DHT22;10676;50.848;3.272;2023-04-03T00:58:20;1.40;99.90
21035;DHT22;10676;50.848;3.272;2023-04-03T01:00:50;1.50;99.90
21035;DHT22;10676;50.848;3.272;2023-04-03T01:03:21;1.50;99.90
21035;DHT22;10676;50.848;3.272;2023-04-03T01:05:47;1.60;99.90
21035;DHT22;10676;50.848;3.272;2023-04-03T01:08:13;1.60;99.90
21035;DHT22;10676;50.848;3.272;2023-04-03T01:10:39;1.70;99.90
21035;DHT22;10676;50.848;3.272;2023-04-03T01:13:28;1.70;99.90
21035;DHT22;10676;50.848;3.272;2023-04-03T01:15:55;1.70;99.90
21035;DHT22;10676;50.848;3.272;2023-04-03T01:18:23;1.70;99.90
21035;DHT22;10676;50.848;3.272;2023-04-03T01:24:05;1.70;99.90
21035;DHT22;10676;50.848;3.272;2023-04-03T01:26:33;1.70;99.90
21035;DHT22;10676;50.848;3.272;2023-04-03T01:28:59;1.80;99.90
21035;DHT22;10676;50.848;3.272;2023-04-03T01:31:31;1.70;99.90
21035;DHT22;10676;50.848;3.272;2023-04-03T01:33:57;1.70;99.90
21035;DHT22;10676;50.848;3.272;2023-04-03T01:36:30;1.80;99.90
21035;DHT22;10676;50.848;3.272;2023-04-03T01:38:57;1.80;99.90
21035;DHT22;10676;50.848;3.272;2023-04-03T01:41:24;1.90;99.90
21035;DHT22;10676;50.848;3.272;2023-04-03T01:43:51;1.90;99.90
21035;DHT22;10676;50.848;3.272;2023-04-03T01:46:17;1.90;99.90
21035;DHT22;10676;50.848;3.272;2023-04-03T01:48:43;1.90;99.90
21035;DHT22;10676;50.848;3.272;2023-04-03T01:51:10;2.00;99.90
21035;DHT22;10676;50.848;3.272;2023-04-03T01:53:35;2.00;99.90
21035;DHT22;10676;50.848;3.272;2023-04-03T01:56:01;2.00;99.90
21035;DHT22;10676;50.848;3.272;2023-04-03T01:58:27;2.00;99.90
21035;DHT22;10676;50.848;3.272;2023-04-03T02:00:53;1.90;99.90
21035;DHT22;10676;50.848;3.272;2023-04-03T02:03:19;1.90;99.90
21035;DHT22;10676;50.848;3.272;2023-04-03T02:05:45;1.90;99.90
21035;DHT22;10676;50.848;3.272;2023-04-03T02:08:11;1.80;99.90
21035;DHT22;10676;50.848;3.272;2023-04-03T02:10:37;1.80;99.90
21035;DHT22;10676;50.848;3.272;2023-04-03T02:13:03;1.80;99.90
21035;DHT22;10676;50.848;3.272;2023-04-03T02:15:29;1.70;99.90
21035;DHT22;10676;50.848;3.272;2023-04-03T02:17:55;1.60;99.90
21035;DHT22;10676;50.848;3.272;2023-04-03T02:20:20;1.50;99.90
21035;DHT22;10676;50.848;3.272;2023-04-03T02:22:47;1.50;99.90
21035;DHT22;10676;50.848;3.272;2023-04-03T02:25:12;1.50;99.90
21035;DHT22;10676;50.848;3.272;2023-04-03T02:27:38;1.50;99.90
21035;DHT22;10676;50.848;3.272;2023-04-03T02:30:05;1.50;99.90
21035;DHT22;10676;50.848;3.272;2023-04-03T02:32:31;1.50;99.90
21035;DHT22;10676;50.848;3.272;2023-04-03T02:34:56;1.40;99.90
21035;DHT22;10676;50.848;3.272;2023-04-03T02:37:22;1.40;99.90
21035;DHT22;10676;50.848;3.272;2023-04-03T02:39:48;1.50;99.90
21035;DHT22;10676;50.848;3.272;2023-04-03T02:42:14;1.50;99.90
21035;DHT22;10676;50.848;3.272;2023-04-03T02:44:39;1.60;99.90
21035;DHT22;10676;50.848;3.272;2023-04-03T02:47:05;1.60;99.90
21035;DHT22;10676;50.848;3.272;2023-04-03T02:49:31;1.70;99.90
21035;DHT22;10676;50.848;3.272;2023-04-03T02:51:57;1.70;99.90
21035;DHT22;10676;50.848;3.272;2023-04-03T02:54:22;1.80;99.90
21035;DHT22;10676;50.848;3.272;2023-04-03T02:56:49;1.80;99.90
21035;DHT22;10676;50.848;3.272;2023-04-03T02:59:15;1.80;99.90
21035;DHT22;10676;50.848;3.272;2023-04-03T03:01:40;1.80;99.90
21035;DHT22;10676;50.848;3.272;2023-04-03T03:04:06;1.80;99.90
21035;DHT22;10676;50.848;3.272;2023-04-03T03:06:32;1.80;99.90
21035;DHT22;10676;50.848;3.272;2023-04-03T03:08:57;1.80;99.90
21035;DHT22;10676;50.848;3.272;2023-04-03T03:11:23;1.80;99.90
21035;DHT22;10676;50.848;3.272;2023-04-03T03:13:49;1.80;99.90
21035;DHT22;10676;50.848;3.272;2023-04-03T03:16:15;1.80;99.90
21035;DHT22;10676;50.848;3.272;2023-04-03T03:18:40;1.90;99.90
21035;DHT22;10676;50.848;3.272;2023-04-03T03:21:06;1.70;99.90
21035;DHT22;10676;50.848;3.272;2023-04-03T03:23:32;1.70;99.90
21035;DHT22;10676;50.848;3.272;2023-04-03T03:26:00;1.70;99.90
21035;DHT22;10676;50.848;3.272;2023-04-03T03:28:27;1.70;99.90
21035;DHT22;10676;50.848;3.272;2023-04-03T03:30:53;1.70;99.90
21035;DHT22;10676;50.848;3.272;2023-04-03T03:33:19;1.70;99.90
21035;DHT22;10676;50.848;3.272;2023-04-03T03:35:44;1.60;99.90
21035;DHT22;10676;50.848;3.272;2023-04-03T03:38:10;1.60;99.90
21035;DHT22;10676;50.848;3.272;2023-04-03T03:40:36;1.50;99.90
21035;DHT22;10676;50.848;3.272;2023-04-03T03:43:02;1.50;99.90
21035;DHT22;10676;50.848;3.272;2023-04-03T03:45:28;1.40;99.90
21035;DHT22;10676;50.848;3.272;2023-04-03T03:47:54;1.40;99.90
21035;DHT22;10676;50.848;3.272;2023-04-03T03:50:20;1.40;99.90
21035;DHT22;10676;50.848;3.272;2023-04-03T03:52:46;1.40;99.90
21035;DHT22;10676;50.848;3.272;2023-04-03T03:55:12;1.40;99.90
21035;DHT22;10676;50.848;3.272;2023-04-03T03:57:37;1.30;99.90
21035;DHT22;10676;50.848;3.272;2023-04-03T04:00:03;1.30;99.90
21035;DHT22;10676;50.848;3.272;2023-04-03T04:02:29;1.30;99.90
21035;DHT22;10676;50.848;3.272;2023-04-03T04:04:56;1.30;99.90
21035;DHT22;10676;50.848;3.272;2023-04-03T04:07:22;1.30;99.90
21035;DHT22;10676;50.848;3.272;2023-04-03T04:09:47;1.20;99.90
21035;DHT22;10676;50.848;3.272;2023-04-03T04:12:13;1.40;99.90
21035;DHT22;10676;50.848;3.272;2023-04-03T04:14:39;1.20;99.90
21035;DHT22;10676;50.848;3.272;2023-04-03T04:17:04;1.20;99.90
21035;DHT22;10676;50.848;3.272;2023-04-03T04:19:30;1.20;99.90
21035;DHT22;10676;50.848;3.272;2023-04-03T04:21:56;1.20;99.90
21035;DHT22;10676;50.848;3.272;2023-04-03T04:24:22;1.30;99.90
21035;DHT22;10676;50.848;3.272;2023-04-03T04:26:50;1.40;99.90
21035;DHT22;10676;50.848;3.272;2023-04-03T04:29:16;1.40;99.90
21035;DHT22;10676;50.848;3.272;2023-04-03T04:31:41;1.50;99.90
21035;DHT22;10676;50.848;3.272;2023-04-03T04:34:07;1.60;99.90
21035;DHT22;10676;50.848;3.272;2023-04-03T04:36:33;1.70;99.90
21035;DHT22;10676;50.848;3.272;2023-04-03T04:38:59;1.70;99.90
21035;DHT22;10676;50.848;3.272;2023-04-03T04:41:25;1.80;99.90
21035;DHT22;10676;50.848;3.272;2023-04-03T04:43:51;1.80;99.90
21035;DHT22;10676;50.848;3.272;2023-04-03T04:46:18;1.80;99.90
21035;DHT22;10676;50.848;3.272;2023-04-03T04:48:44;1.80;99.90
21035;DHT22;10676;50.848;3.272;2023-04-03T04:51:10;1.80;99.90
21035;DHT22;10676;50.848;3.272;2023-04-03T04:53:37;1.80;99.90
21035;DHT22;10676;50.848;3.272;2023-04-03T04:56:03;1.80;99.90
21035;DHT22;10676;50.848;3.272;2023-04-03T04:58:28;1.80;99.90
21035;DHT22;10676;50.848;3.272;2023-04-03T05:01:05;1.80;99.90
21035;DHT22;10676;50.848;3.272;2023-04-03T05:03:32;1.80;99.90
21035;DHT22;10676;50.848;3.272;2023-04-03T05:05:58;1.90;99.90
21035;DHT22;10676;50.848;3.272;2023-04-03T05:08:24;1.90;99.90
21035;DHT22;10676;50.848;3.272;2023-04-03T05:10:50;1.90;99.90
21035;DHT22;10676;50.848;3.272;2023-04-03T05:13:16;2.00;99.90
21035;DHT22;10676;50.848;3.272;2023-04-03T05:15:42;2.00;99.90
21035;DHT22;10676;50.848;3.272;2023-04-03T05:18:07;2.10;99.90
21035;DHT22;10676;50.848;3.272;2023-04-03T05:20:33;2.10;99.90
21035;DHT22;10676;50.848;3.272;2023-04-03T05:22:59;2.20;99.90
21035;DHT22;10676;50.848;3.272;2023-04-03T05:25:25;2.30;99.90
21035;DHT22;10676;50.848;3.272;2023-04-03T05:27:50;2.30;99.90
21035;DHT22;10676;50.848;3.272;2023-04-03T05:30:16;2.30;99.90
21035;DHT22;10676;50.848;3.272;2023-04-03T05:32:43;2.30;99.90
21035;DHT22;10676;50.848;3.272;2023-04-03T05:35:09;2.40;99.90
21035;DHT22;10676;50.848;3.272;2023-04-03T05:37:34;2.40;99.90
21035;DHT22;10676;50.848;3.272;2023-04-03T05:40:00;2.50;99.90
21035;DHT22;10676;50.848;3.272;2023-04-03T05:42:26;2.60;99.90
21035;DHT22;10676;50.848;3.272;2023-04-03T05:44:52;2.90;99.90
21035;DHT22;10676;50.848;3.272;2023-04-03T05:47:18;3.40;99.90
21035;DHT22;10676;50.848;3.272;2023-04-03T05:49:44;3.80;99.90
21035;DHT22;10676;50.848;3.272;2023-04-03T05:52:30;4.30;99.90
21035;DHT22;10676;50.848;3.272;2023-04-03T05:54:57;4.90;99.90
21035;DHT22;10676;50.848;3.272;2023-04-03T05:57:23;5.40;99.90
21035;DHT22;10676;50.848;3.272;2023-04-03T05:59:49;5.90;99.90
21035;DHT22;10676;50.848;3.272;2023-04-03T06:02:23;6.40;99.90
21035;DHT22;10676;50.848;3.272;2023-04-03T06:04:49;7.00;99.90
21035;DHT22;10676;50.848;3.272;2023-04-03T06:07:18;7.60;99.90
21035;DHT22;10676;50.848;3.272;2023-04-03T06:09:45;8.20;99.90
21035;DHT22;10676;50.848;3.272;2023-04-03T06:12:11;8.70;99.90
21035;DHT22;10676;50.848;3.272;2023-04-03T06:14:36;9.30;99.90
21035;DHT22;10676;50.848;3.272;2023-04-03T06:17:03;9.80;99.90
21035;DHT22;10676;50.848;3.272;2023-04-03T06:19:30;10.30;99.90
21035;DHT22;10676;50.848;3.272;2023-04-03T06:21:56;10.70;99.90
21035;DHT22;10676;50.848;3.272;2023-04-03T06:24:21;11.10;99.90
21035;DHT22;10676;50.848;3.272;2023-04-03T06:26:49;11.50;99.90
21035;DHT22;10676;50.848;3.272;2023-04-03T06:29:16;11.90;99.90
21035;DHT22;10676;50.848;3.272;2023-04-03T06:31:43;12.30;99.90
21035;DHT22;10676;50.848;3.272;2023-04-03T06:34:09;12.60;99.90
21035;DHT22;10676;50.848;3.272;2023-04-03T06:36:36;13.00;99.90
21035;DHT22;10676;50.848;3.272;2023-04-03T06:39:03;13.30;99.90
21035;DHT22;10676;50.848;3.272;2023-04-03T06:41:28;13.60;99.90
21035;DHT22;10676;50.848;3.272;2023-04-03T06:43:54;14.00;99.90
21035;DHT22;10676;50.848;3.272;2023-04-03T06:46:22;14.40;99.90
21035;DHT22;10676;50.848;3.272;2023-04-03T06:48:49;14.90;99.90
21035;DHT22;10676;50.848;3.272;2023-04-03T06:51:25;15.40;99.90
21035;DHT22;10676;50.848;3.272;2023-04-03T06:53:53;16.00;99.90
21035;DHT22;10676;50.848;3.272;2023-04-03T06:56:20;16.40;99.90
21035;DHT22;10676;50.848;3.272;2023-04-03T06:58:46;16.80;99.90
21035;DHT22;10676;50.848;3.272;2023-04-03T07:01:13;17.20;99.90
21035;DHT22;10676;50.848;3.272;2023-04-03T07:03:39;17.40;99.90
21035;DHT22;10676;50.848;3.272;2023-04-03T07:06:06;17.40;99.90
21035;DHT22;10676;50.848;3.272;2023-04-03T07:08:33;17.50;99.90
21035;DHT22;10676;50.848;3.272;2023-04-03T07:11:00;17.60;99.90
21035;DHT22;10676;50.848;3.272;2023-04-03T07:13:26;17.60;99.90
21035;DHT22;10676;50.848;3.272;2023-04-03T07:15:52;17.60;99.90
21035;DHT22;10676;50.848;3.272;2023-04-03T07:18:18;17.90;99.90
21035;DHT22;10676;50.848;3.272;2023-04-03T07:20:44;18.20;99.90
21035;DHT22;10676;50.848;3.272;2023-04-03T07:23:10;18.40;99.90
21035;DHT22;10676;50.848;3.272;2023-04-03T07:25:36;18.80;99.90
21035;DHT22;10676;50.848;3.272;2023-04-03T07:28:03;19.10;99.40
21035;DHT22;10676;50.848;3.272;2023-04-03T07:30:29;19.30;98.00
21035;DHT22;10676;50.848;3.272;2023-04-03T07:32:55;19.40;97.20
21035;DHT22;10676;50.848;3.272;2023-04-03T07:35:21;19.40;95.10
21035;DHT22;10676;50.848;3.272;2023-04-03T07:37:46;19.30;95.30
21035;DHT22;10676;50.848;3.272;2023-04-03T07:40:12;19.20;94.90
21035;DHT22;10676;50.848;3.272;2023-04-03T07:42:38;19.20;94.60
21035;DHT22;10676;50.848;3.272;2023-04-03T07:45:04;19.50;93.80
21035;DHT22;10676;50.848;3.272;2023-04-03T07:47:30;19.80;92.80
21035;DHT22;10676;50.848;3.272;2023-04-03T07:49:56;19.90;92.00
21035;DHT22;10676;50.848;3.272;2023-04-03T07:52:23;20.20;91.80
21035;DHT22;10676;50.848;3.272;2023-04-03T07:54:48;20.40;91.10
21035;DHT22;10676;50.848;3.272;2023-04-03T07:57:14;20.80;90.60
21035;DHT22;10676;50.848;3.272;2023-04-03T07:59:40;21.10;88.00
21035;DHT22;10676;50.848;3.272;2023-04-03T08:02:09;21.10;84.20
21035;DHT22;10676;50.848;3.272;2023-04-03T08:04:35;21.00;82.70
21035;DHT22;10676;50.848;3.272;2023-04-03T08:07:01;20.80;81.90
21035;DHT22;10676;50.848;3.272;2023-04-03T08:09:27;20.70;81.20
21035;DHT22;10676;50.848;3.272;2023-04-03T08:11:52;20.60;80.10
21035;DHT22;10676;50.848;3.272;2023-04-03T08:14:19;20.60;78.70
21035;DHT22;10676;50.848;3.272;2023-04-03T08:16:47;20.70;79.10
21035;DHT22;10676;50.848;3.272;2023-04-03T08:19:14;20.90;78.00
21035;DHT22;10676;50.848;3.272;2023-04-03T08:21:41;21.00;77.50
21035;DHT22;10676;50.848;3.272;2023-04-03T08:24:07;21.20;76.60
21035;DHT22;10676;50.848;3.272;2023-04-03T08:26:33;21.40;75.10
21035;DHT22;10676;50.848;3.272;2023-04-03T08:28:59;21.40;74.10
21035;DHT22;10676;50.848;3.272;2023-04-03T08:31:25;21.30;73.10
21035;DHT22;10676;50.848;3.272;2023-04-03T08:33:50;21.30;72.40
21035;DHT22;10676;50.848;3.272;2023-04-03T08:36:22;21.20;72.80
21035;DHT22;10676;50.848;3.272;2023-04-03T08:38:49;21.20;73.10
21035;DHT22;10676;50.848;3.272;2023-04-03T08:41:34;21.10;72.10
21035;DHT22;10676;50.848;3.272;2023-04-03T08:44:25;21.20;73.10
21035;DHT22;10676;50.848;3.272;2023-04-03T08:47:11;21.40;74.00
21035;DHT22;10676;50.848;3.272;2023-04-03T08:49:51;21.70;71.60
21035;DHT22;10676;50.848;3.272;2023-04-03T08:52:23;21.60;70.10
21035;DHT22;10676;50.848;3.272;2023-04-03T08:54:53;21.30;69.30
21035;DHT22;10676;50.848;3.272;2023-04-03T08:57:40;21.20;69.10
21035;DHT22;10676;50.848;3.272;2023-04-03T09:00:20;21.10;70.10
21035;DHT22;10676;50.848;3.272;2023-04-03T09:02:48;21.10;71.10
21035;DHT22;10676;50.848;3.272;2023-04-03T09:05:20;21.20;70.60
21035;DHT22;10676;50.848;3.272;2023-04-03T09:08:17;21.50;68.10
21035;DHT22;10676;50.848;3.272;2023-04-03T09:10:44;21.60;66.50
21035;DHT22;10676;50.848;3.272;2023-04-03T09:15:57;21.20;67.50
21035;DHT22;10676;50.848;3.272;2023-04-03T09:18:30;21.10;66.50
21035;DHT22;10676;50.848;3.272;2023-04-03T09:23:30;21.20;68.30
21035;DHT22;10676;50.848;3.272;2023-04-03T09:26:04;21.40;66.00
21035;DHT22;10676;50.848;3.272;2023-04-03T09:28:33;21.60;65.70
21035;DHT22;10676;50.848;3.272;2023-04-03T09:31:18;21.70;66.30
21035;DHT22;10676;50.848;3.272;2023-04-03T09:33:44;21.90;65.30
21035;DHT22;10676;50.848;3.272;2023-04-03T09:36:12;21.90;63.60
21035;DHT22;10676;50.848;3.272;2023-04-03T09:38:37;21.80;62.80
21035;DHT22;10676;50.848;3.272;2023-04-03T09:41:21;21.50;63.60
21035;DHT22;10676;50.848;3.272;2023-04-03T09:43:54;21.20;65.30
21035;DHT22;10676;50.848;3.272;2023-04-03T09:46:30;21.00;64.20
21035;DHT22;10676;50.848;3.272;2023-04-03T09:49:02;21.00;64.90
21035;DHT22;10676;50.848;3.272;2023-04-03T09:51:29;21.00;63.50
21035;DHT22;10676;50.848;3.272;2023-04-03T09:53:55;20.80;63.70
21035;DHT22;10676;50.848;3.272;2023-04-03T09:56:27;20.80;63.30
21035;DHT22;10676;50.848;3.272;2023-04-03T10:01:31;21.00;62.80
21035;DHT22;10676;50.848;3.272;2023-04-03T10:04:16;20.90;62.50
21035;DHT22;10676;50.848;3.272;2023-04-03T10:06:47;21.00;63.10
21035;DHT22;10676;50.848;3.272;2023-04-03T10:09:30;21.00;62.10
21035;DHT22;10676;50.848;3.272;2023-04-03T10:12:05;21.20;61.30
21035;DHT22;10676;50.848;3.272;2023-04-03T10:14:37;21.10;60.00
21035;DHT22;10676;50.848;3.272;2023-04-03T10:33:33;20.30;60.60
21035;DHT22;10676;50.848;3.272;2023-04-03T10:36:19;20.50;62.40
21035;DHT22;10676;50.848;3.272;2023-04-03T10:41:59;20.90;61.20
21035;DHT22;10676;50.848;3.272;2023-04-03T10:47:28;21.30;56.90
21035;DHT22;10676;50.848;3.272;2023-04-03T10:50:12;21.10;57.10
21035;DHT22;10676;50.848;3.272;2023-04-03T10:55:46;20.70;57.40
21035;DHT22;10676;50.848;3.272;2023-04-03T10:58:26;20.70;57.60
21035;DHT22;10676;50.848;3.272;2023-04-03T11:00:53;20.60;56.80
21035;DHT22;10676;50.848;3.272;2023-04-03T11:05:52;20.10;59.00
21035;DHT22;10676;50.848;3.272;2023-04-03T11:10:55;20.10;59.10
21035;DHT22;10676;50.848;3.272;2023-04-03T11:16:17;20.00;58.60
21035;DHT22;10676;50.848;3.272;2023-04-03T11:19:05;20.00;57.40
21035;DHT22;10676;50.848;3.272;2023-04-03T11:24:25;19.90;58.60
21035;DHT22;10676;50.848;3.272;2023-04-03T11:26:53;20.00;59.90
21035;DHT22;10676;50.848;3.272;2023-04-03T11:29:27;19.90;59.60
21035;DHT22;10676;50.848;3.272;2023-04-03T11:32:09;19.90;58.70
21035;DHT22;10676;50.848;3.272;2023-04-03T11:34:44;19.90;58.10
21035;DHT22;10676;50.848;3.272;2023-04-03T11:37:25;19.60;59.10
21035;DHT22;10676;50.848;3.272;2023-04-03T11:39:57;19.40;59.80
21035;DHT22;10676;50.848;3.272;2023-04-03T11:47:46;19.60;60.00
21035;DHT22;10676;50.848;3.272;2023-04-03T11:50:37;19.50;59.70
21035;DHT22;10676;50.848;3.272;2023-04-03T11:56:00;19.20;59.80
21035;DHT22;10676;50.848;3.272;2023-04-03T11:58:30;19.10;58.40
21035;DHT22;10676;50.848;3.272;2023-04-03T12:00:57;18.90;59.30
21035;DHT22;10676;50.848;3.272;2023-04-03T12:16:28;19.20;60.00
21035;DHT22;10676;50.848;3.272;2023-04-03T12:39:59;18.70;56.70
21035;DHT22;10676;50.848;3.272;2023-04-03T12:42:40;18.60;56.60
21035;DHT22;10676;50.848;3.272;2023-04-03T12:45:22;18.40;57.40
21035;DHT22;10676;50.848;3.272;2023-04-03T12:47:49;18.20;57.70
21035;DHT22;10676;50.848;3.272;2023-04-03T12:52:49;17.90;59.60
21035;DHT22;10676;50.848;3.272;2023-04-03T12:55:19;17.90;58.40
21035;DHT22;10676;50.848;3.272;2023-04-03T12:57:46;17.80;57.20
21035;DHT22;10676;50.848;3.272;2023-04-03T13:02:53;17.60;57.70
21035;DHT22;10676;50.848;3.272;2023-04-03T13:05:19;17.50;57.90
21035;DHT22;10676;50.848;3.272;2023-04-03T13:08:02;17.40;58.80
21035;DHT22;10676;50.848;3.272;2023-04-03T13:10:29;17.40;58.10
21035;DHT22;10676;50.848;3.272;2023-04-03T13:13:07;17.30;58.40
21035;DHT22;10676;50.848;3.272;2023-04-03T13:15:45;17.30;59.50
21035;DHT22;10676;50.848;3.272;2023-04-03T13:18:40;17.30;59.50
21035;DHT22;10676;50.848;3.272;2023-04-03T13:21:15;17.40;58.00
21035;DHT22;10676;50.848;3.272;2023-04-03T13:23:45;17.40;56.20
21035;DHT22;10676;50.848;3.272;2023-04-03T13:26:12;17.40;57.60
21035;DHT22;10676;50.848;3.272;2023-04-03T13:28:42;17.30;56.90
21035;DHT22;10676;50.848;3.272;2023-04-03T13:31:14;17.20;57.50
21035;DHT22;10676;50.848;3.272;2023-04-03T13:34:09;17.20;58.90
21035;DHT22;10676;50.848;3.272;2023-04-03T13:36:39;17.30;58.30
21035;DHT22;10676;50.848;3.272;2023-04-03T13:41:47;17.40;59.10
21035;DHT22;10676;50.848;3.272;2023-04-03T13:51:51;17.50;60.30
21035;DHT22;10676;50.848;3.272;2023-04-03T13:54:36;17.60;60.90
21035;DHT22;10676;50.848;3.272;2023-04-03T13:57:03;17.60;60.50
21035;DHT22;10676;50.848;3.272;2023-04-03T13:59:36;17.80;59.30
21035;DHT22;10676;50.848;3.272;2023-04-03T14:04:32;18.20;58.00
21035;DHT22;10676;50.848;3.272;2023-04-03T14:06:58;18.30;57.20
21035;DHT22;10676;50.848;3.272;2023-04-03T14:09:26;18.10;58.30
21035;DHT22;10676;50.848;3.272;2023-04-03T14:11:55;17.90;58.00
21035;DHT22;10676;50.848;3.272;2023-04-03T14:14:26;17.90;58.90
21035;DHT22;10676;50.848;3.272;2023-04-03T14:16:56;17.70;59.10
21035;DHT22;10676;50.848;3.272;2023-04-03T14:19:33;17.60;59.10
21035;DHT22;10676;50.848;3.272;2023-04-03T14:22:05;17.50;59.80
21035;DHT22;10676;50.848;3.272;2023-04-03T14:24:31;17.40;60.20
21035;DHT22;10676;50.848;3.272;2023-04-03T14:27:05;17.40;60.70
21035;DHT22;10676;50.848;3.272;2023-04-03T14:29:37;17.40;60.00
21035;DHT22;10676;50.848;3.272;2023-04-03T14:32:02;17.40;60.90
21035;DHT22;10676;50.848;3.272;2023-04-03T14:34:28;17.30;60.90
21035;DHT22;10676;50.848;3.272;2023-04-03T14:36:54;17.20;59.80
21035;DHT22;10676;50.848;3.272;2023-04-03T14:39:20;17.10;60.50
21035;DHT22;10676;50.848;3.272;2023-04-03T14:41:46;17.10;59.90
21035;DHT22;10676;50.848;3.272;2023-04-03T14:44:12;17.10;59.70
21035;DHT22;10676;50.848;3.272;2023-04-03T14:46:41;17.00;60.00
21035;DHT22;10676;50.848;3.272;2023-04-03T14:49:24;17.00;60.50
21035;DHT22;10676;50.848;3.272;2023-04-03T14:51:50;17.00;60.50
21035;DHT22;10676;50.848;3.272;2023-04-03T14:54:19;17.20;59.00
21035;DHT22;10676;50.848;3.272;2023-04-03T14:56:51;17.20;57.10
21035;DHT22;10676;50.848;3.272;2023-04-03T14:59:17;17.30;55.80
21035;DHT22;10676;50.848;3.272;2023-04-03T15:01:45;17.20;55.90
21035;DHT22;10676;50.848;3.272;2023-04-03T15:04:16;17.20;56.30
21035;DHT22;10676;50.848;3.272;2023-04-03T15:06:43;17.20;56.80
21035;DHT22;10676;50.848;3.272;2023-04-03T15:09:24;17.20;56.50
21035;DHT22;10676;50.848;3.272;2023-04-03T15:11:51;17.10;56.40
21035;DHT22;10676;50.848;3.272;2023-04-03T15:14:17;17.20;55.50
21035;DHT22;10676;50.848;3.272;2023-04-03T15:16:43;17.10;55.90
21035;DHT22;10676;50.848;3.272;2023-04-03T15:19:10;17.00;55.50
21035;DHT22;10676;50.848;3.272;2023-04-03T15:21:35;16.90;53.50
21035;DHT22;10676;50.848;3.272;2023-04-03T15:24:01;16.90;54.10
21035;DHT22;10676;50.848;3.272;2023-04-03T15:26:27;16.70;54.30
21035;DHT22;10676;50.848;3.272;2023-04-03T15:28:52;16.60;54.70
21035;DHT22;10676;50.848;3.272;2023-04-03T15:31:18;16.60;54.70
21035;DHT22;10676;50.848;3.272;2023-04-03T15:33:44;16.60;55.00
21035;DHT22;10676;50.848;3.272;2023-04-03T15:36:09;16.60;54.40
21035;DHT22;10676;50.848;3.272;2023-04-03T15:38:35;16.60;54.00
21035;DHT22;10676;50.848;3.272;2023-04-03T15:41:03;16.60;53.30
21035;DHT22;10676;50.848;3.272;2023-04-03T15:43:29;16.60;53.00
21035;DHT22;10676;50.848;3.272;2023-04-03T15:45:59;16.50;52.60
21035;DHT22;10676;50.848;3.272;2023-04-03T15:48:26;16.40;54.10
21035;DHT22;10676;50.848;3.272;2023-04-03T15:50:52;16.40;53.90
21035;DHT22;10676;50.848;3.272;2023-04-03T15:53:17;16.30;54.10
21035;DHT22;10676;50.848;3.272;2023-04-03T15:55:43;16.20;53.30
21035;DHT22;10676;50.848;3.272;2023-04-03T15:58:09;16.20;53.90
21035;DHT22;10676;50.848;3.272;2023-04-03T16:00:39;16.20;55.10
21035;DHT22;10676;50.848;3.272;2023-04-03T16:03:11;16.10;55.30
21035;DHT22;10676;50.848;3.272;2023-04-03T16:05:38;16.10;55.10
21035;DHT22;10676;50.848;3.272;2023-04-03T16:08:05;16.10;54.60
21035;DHT22;10676;50.848;3.272;2023-04-03T16:10:33;16.00;54.30
21035;DHT22;10676;50.848;3.272;2023-04-03T16:12:58;16.00;54.20
21035;DHT22;10676;50.848;3.272;2023-04-03T16:15:25;16.00;54.00
21035;DHT22;10676;50.848;3.272;2023-04-03T16:17:54;15.90;54.10
21035;DHT22;10676;50.848;3.272;2023-04-03T16:20:20;15.90;54.30
21035;DHT22;10676;50.848;3.272;2023-04-03T16:22:47;15.80;54.70
21035;DHT22;10676;50.848;3.272;2023-04-03T16:25:13;15.70;55.20
21035;DHT22;10676;50.848;3.272;2023-04-03T16:27:39;15.70;55.50
21035;DHT22;10676;50.848;3.272;2023-04-03T16:30:05;15.70;55.90
21035;DHT22;10676;50.848;3.272;2023-04-03T16:32:32;15.70;55.90
21035;DHT22;10676;50.848;3.272;2023-04-03T16:34:58;15.60;55.90
21035;DHT22;10676;50.848;3.272;2023-04-03T16:37:24;15.50;56.60
21035;DHT22;10676;50.848;3.272;2023-04-03T16:39:50;15.50;56.50
21035;DHT22;10676;50.848;3.272;2023-04-03T16:42:16;15.40;56.80
21035;DHT22;10676;50.848;3.272;2023-04-03T16:44:42;15.40;56.80
21035;DHT22;10676;50.848;3.272;2023-04-03T16:47:08;15.30;56.60
21035;DHT22;10676;50.848;3.272;2023-04-03T16:49:34;15.30;57.10
21035;DHT22;10676;50.848;3.272;2023-04-03T16:52:02;15.20;57.50
21035;DHT22;10676;50.848;3.272;2023-04-03T16:54:28;15.10;57.80
21035;DHT22;10676;50.848;3.272;2023-04-03T16:56:55;15.10;57.70
21035;DHT22;10676;50.848;3.272;2023-04-03T16:59:20;15.00;57.50
21035;DHT22;10676;50.848;3.272;2023-04-03T17:01:46;15.00;57.80
21035;DHT22;10676;50.848;3.272;2023-04-03T17:04:12;14.80;58.00
21035;DHT22;10676;50.848;3.272;2023-04-03T17:06:38;14.80;58.20
21035;DHT22;10676;50.848;3.272;2023-04-03T17:09:04;14.70;58.20
21035;DHT22;10676;50.848;3.272;2023-04-03T17:11:30;14.60;58.10
21035;DHT22;10676;50.848;3.272;2023-04-03T17:13:56;14.50;59.10
21035;DHT22;10676;50.848;3.272;2023-04-03T17:16:23;14.40;59.60
21035;DHT22;10676;50.848;3.272;2023-04-03T17:18:49;14.40;59.70
21035;DHT22;10676;50.848;3.272;2023-04-03T17:21:16;14.40;59.60
21035;DHT22;10676;50.848;3.272;2023-04-03T17:23:44;14.40;60.30
21035;DHT22;10676;50.848;3.272;2023-04-03T17:26:11;14.40;60.00
21035;DHT22;10676;50.848;3.272;2023-04-03T17:28:37;14.30;59.80
21035;DHT22;10676;50.848;3.272;2023-04-03T17:31:05;14.30;60.20
21035;DHT22;10676;50.848;3.272;2023-04-03T17:33:31;14.20;59.90
21035;DHT22;10676;50.848;3.272;2023-04-03T17:35:58;14.00;59.80